ESNS

Skellefteå Airport

Skellefteå, Sweden
METAR ESNS 250020Z AUTO 19002KT 9999 NCD 00/00 Q0991
Observed Flight Rules
Apr-25 @ 00:20 UTC (11 minutes ago) Visual Flight Rules
Wind Visibility Clouds
190° at 2 knots 10,000+ meters
  • Clear skies
Temperatures Readings
Current 0°C / 32°F
Dewpoint 0°C / 32°F
Humidity 100%
Altimeter 29.26" Hg
Pressure 991 hPa
Elevation 49
METAR ESNS 250020Z AUTO 19002KT 9999 NCD 00/00 Q0991
Observed Flight Rules
Apr-25 @ 00:20 UTC
(11 minutes ago)
VFR
Wind Visibility
190° at 2 knots 10,000+ meters
Clouds
  • Clear skies
Temperature Dewpoint
0°C / 32°F 0°C / 32°F
Humidity Altimeter Pressure
100% 29.26" Hg 991 hPa